Terminal Aerodrome Forecast
Issued by NWS Albany, NY

Home | Current Version | Previous Version | Text Only | Print | Product List | Glossary On
Versions: 1 2 3 4 5 6 7 8 9 10 11 12 13 14 15
000
FTUS41 KALY 190523
TAFPOU
TAF
KPOU 190523Z 1906/2006 00000KT P6SM SKC
     FM190800 00000KT 6SM BR FEW002
      TEMPO 1912/1914 2SM BR BKN002
     FM191400 VRB03KT P6SM FEW250
     FM191600 22008KT P6SM SKC
     FM192300 21003KT P6SM FEW250=

USA.gov is the U.S. government's official web portal to all federal, state and local government web resources and services.